Time;durP1;ratioP1;P1;durP2;ratioP2;P2;SDS_P1;SDS_P2;PMS_P1;PMS_P2;Temp;Humidity;BMP_temperature;BMP_pressure;BME280_temperature;BME280_humidity;BME280_pressure;Samples;Min_cycle;Max_cycle;Signal;HPM_P1;HPM_P2
2022/02/03 00:00:07;;;;;;;;;1.00;1.00;;;;;;;;2;261079307;261079307;-85
2022/02/03 00:26:43;;;;;;;;;12.50;3.50;;;;;;;;2;260938108;260938108;-85
2022/02/03 00:52:51;;;;;;;;;4.00;4.00;;;;;;;;2;261074861;261074861;-85
2022/02/03 01:01:55;;;;;;;;;3.00;3.00;;;;;;;;2;261074857;261074857;-85
2022/02/03 01:10:16;;;;;;;;;3.00;3.00;;;;;;;;2;261053605;261053605;-85
2022/02/03 01:19:43;;;;;;;;;1.00;1.00;;;;;;;;2;261075719;261075719;-85
2022/02/03 01:37:38;;;;;;;;;1.50;1.50;;;;;;;;2;261056952;261056952;-85
2022/02/03 01:45:59;;;;;;;;;3.00;3.00;;;;;;;;2;261075641;261075641;-85
2022/02/03 01:55:00;;;;;;;;;0.50;0.50;;;;;;;;2;261073709;261073709;-85
2022/02/03 02:03:16;;;;;;;;;2.50;2.50;;;;;;;;2;261073471;261073471;-85
2022/02/03 02:12:25;;;;;;;;;6.00;0.50;;;;;;;;2;261075923;261075923;-85
2022/02/03 02:38:41;;;;;;;;;6.00;3.50;;;;;;;;2;261077198;261077198;-85
2022/02/03 02:47:41;;;;;;;;;2.00;2.00;;;;;;;;2;261077599;261077599;-85
2022/02/03 02:55:51;;;;;;;;;5.50;5.50;;;;;;;;2;244525791;244525791;-85
2022/02/03 03:31:22;;;;;;;;;4.50;2.50;;;;;;;;2;261076207;261076207;-86
2022/02/03 03:40:22;;;;;;;;;3.00;3.00;;;;;;;;2;260003258;260003258;-86
2022/02/03 03:48:50;;;;;;;;;3.50;3.50;;;;;;;;2;261075642;261075642;-86
2022/02/03 04:43:10;;;;;;;;;1.00;1.00;;;;;;;;2;261074829;261074829;-86
2022/02/03 04:56:29;;;;;;;;;4.00;3.50;;;;;;;;6309735;22;45160;-86
2022/02/03 04:59:34;;;;;;;;;5.50;3.75;;;;;;;;6308834;22;45112;-86
2022/02/03 05:05:31;;;;;;;;;2.50;2.50;;;;;;;;6309767;22;45270;-86
2022/02/03 05:08:32;;;;;;;;;5.00;4.00;;;;;;;;6308995;22;45475;-83
2022/02/03 05:11:28;;;;;;;;;7.50;3.00;;;;;;;;6308686;22;45333;-83
2022/02/03 05:14:40;;;;;;;;;3.00;3.00;;;;;;;;6283513;22;45577;-85
2022/02/03 05:25:47;;;;;;;;;4.50;3.50;;;;;;;;6309665;22;45387;-86
2022/02/03 05:35:06;;;;;;;;;4.00;4.00;;;;;;;;6309169;22;45392;-85
2022/02/03 05:49:01;;;;;;;;;6.75;4.75;;;;;;;;6309154;22;45531;-84
2022/02/03 06:02:38;;;;;;;;;4.50;4.50;;;;;;;;6308719;22;45369;-83
2022/02/03 06:05:04;;;;;;;;;12.50;7.00;;;;;;;;6308378;22;45332;-83
2022/02/03 06:13:07;;;;;;;;;11.75;8.00;;;;;;;;6308432;22;45488;-82
2022/02/03 06:23:46;;;;;;;;;12.75;7.75;;;;;;;;6308389;22;45238;-81
2022/02/03 06:29:00;;;;;;;;;12.50;7.25;;;;;;;;6308030;22;45715;-81
2022/02/03 06:31:26;;;;;;;;;10.25;8.00;;;;;;;;6308409;22;45249;-81
2022/02/03 06:33:51;;;;;;;;;13.00;9.00;;;;;;;;6308952;22;45536;-81
2022/02/03 06:36:16;;;;;;;;;9.00;9.00;;;;;;;;6281590;22;45609;-81
2022/02/03 06:38:41;;;;;;;;;29.00;25.00;;;;;;;;6308789;22;46071;-85
2022/02/03 06:41:30;;;;;;;;;7.00;7.00;;;;;;;;6310289;22;45265;-83
2022/02/03 06:46:50;;;;;;;;;7.75;7.00;;;;;;;;6284153;22;45846;-83
2022/02/03 06:51:49;;;;;;;;;11.50;8.50;;;;;;;;6309272;22;45489;-84
2022/02/03 06:54:22;;;;;;;;;9.75;5.50;;;;;;;;6281396;22;45299;-84
2022/02/03 06:56:56;;;;;;;;;12.50;7.25;;;;;;;;6310524;22;45193;-84
2022/02/03 06:59:28;;;;;;;;;8.75;7.00;;;;;;;;6309692;22;45476;-87
2022/02/03 07:01:53;;;;;;;;;13.25;9.75;;;;;;;;6310762;22;45749;-84
2022/02/03 07:04:24;;;;;;;;;12.25;10.00;;;;;;;;6282059;22;45354;-86
2022/02/03 07:06:49;;;;;;;;;8.50;8.00;;;;;;;;6282173;22;45181;-85
2022/02/03 07:09:14;;;;;;;;;12.75;9.50;;;;;;;;6282153;22;46966;-85
2022/02/03 07:11:41;;;;;;;;;14.50;9.25;;;;;;;;6311261;22;45256;-84
2022/02/03 07:14:08;;;;;;;;;9.75;9.50;;;;;;;;6282764;22;45352;-86
2022/02/03 07:16:36;;;;;;;;;12.25;8.25;;;;;;;;6310758;22;45441;-85
2022/02/03 07:19:01;;;;;;;;;15.50;10.00;;;;;;;;6309683;22;45504;-86
2022/02/03 07:21:26;;;;;;;;;9.25;9.25;;;;;;;;6310026;22;45173;-86
2022/02/03 07:23:52;;;;;;;;;15.33;12.00;;;;;;;;6310187;22;45242;-81
2022/02/03 07:26:17;;;;;;;;;18.67;12.33;;;;;;;;6282049;22;45509;-84
2022/02/03 07:28:42;;;;;;;;;12.67;8.00;;;;;;;;6309956;22;46392;-85
2022/02/03 07:31:07;;;;;;;;;14.00;11.33;;;;;;;;6283139;22;45098;-86
2022/02/03 07:33:33;;;;;;;;;12.50;8.25;;;;;;;;6282061;22;45209;-85
2022/02/03 07:35:58;;;;;;;;;10.75;9.25;;;;;;;;6310338;22;45462;-85
2022/02/03 07:38:23;;;;;;;;;15.25;12.75;;;;;;;;6281331;22;45532;-83
2022/02/03 07:40:49;;;;;;;;;10.75;10.00;;;;;;;;6282013;22;45181;-86
2022/02/03 07:43:15;;;;;;;;;16.50;14.50;;;;;;;;6309976;22;45167;-83
2022/02/03 07:45:40;;;;;;;;;12.75;8.50;;;;;;;;6307007;22;45519;-83
2022/02/03 07:48:06;;;;;;;;;10.75;8.75;;;;;;;;6279619;22;46855;-85
2022/02/03 07:50:31;;;;;;;;;11.75;10.50;;;;;;;;6308928;22;45406;-82
2022/02/03 07:52:56;;;;;;;;;13.00;9.00;;;;;;;;6310370;22;45326;-83
2022/02/03 07:55:22;;;;;;;;;14.00;12.75;;;;;;;;6310137;22;45192;-83
2022/02/03 07:57:52;;;;;;;;;14.00;10.00;;;;;;;;6308265;22;45880;-82
2022/02/03 08:00:18;;;;;;;;;13.50;13.50;;;;;;;;6309535;22;45352;-84
2022/02/03 08:02:44;;;;;;;;;15.75;10.50;;;;;;;;6309677;22;45424;-82
2022/02/03 08:05:11;;;;;;;;;14.75;12.75;;;;;;;;6281211;22;45442;-83
2022/02/03 08:07:53;;;;;;;;;12.75;9.50;;;;;;;;6309447;22;45457;-82
2022/02/03 08:11:05;;;;;;;;;13.25;10.25;;;;;;;;6309238;22;45335;-82
2022/02/03 08:13:12;;;;;;;;;14.75;12.00;;;;;;;;6291089;22;45323;-82
2022/02/03 08:15:40;;;;;;;;;19.50;13.25;;;;;;;;6282025;22;45457;-85
2022/02/03 08:18:14;;;;;;;;;12.75;11.25;;;;;;;;6309576;22;46056;-82
2022/02/03 08:20:47;;;;;;;;;15.00;14.00;;;;;;;;6309755;22;45605;-83
2022/02/03 08:25:47;;;;;;;;;13.67;12.00;;;;;;;;6309174;22;45193;-83
2022/02/03 08:30:57;;;;;;;;;18.00;13.75;;;;;;;;6308980;22;45713;-85
2022/02/03 08:33:22;;;;;;;;;16.00;13.75;;;;;;;;6309910;22;45270;-82
2022/02/03 08:35:50;;;;;;;;;8.33;8.00;;;;;;;;6310213;22;45196;-83
2022/02/03 08:38:22;;;;;;;;;14.75;12.00;;;;;;;;6281150;22;47151;-83
2022/02/03 08:43:16;;;;;;;;;16.75;13.00;;;;;;;;6309150;22;45514;-82
2022/02/03 08:45:43;;;;;;;;;16.25;13.00;;;;;;;;6309479;22;45405;-83
2022/02/03 08:48:09;;;;;;;;;15.00;12.50;;;;;;;;6307348;22;45377;-83
2022/02/03 08:50:35;;;;;;;;;17.75;12.50;;;;;;;;6307936;22;45402;-82
2022/02/03 09:29:03;;;;;;;;;14.25;13.25;;;;;;;;6310998;22;45326;-86
2022/02/03 09:39:24;;;;;;;;;16.25;13.50;;;;;;;;6325165;22;45484;-84
2022/02/03 09:58:00;;;;;;;;;18.75;14.75;;;;;;;;6307533;22;45693;-85
2022/02/03 10:00:29;;;;;;;;;18.25;12.50;;;;;;;;6307912;22;45656;-84
2022/02/03 10:02:57;;;;;;;;;26.50;16.25;;;;;;;;6280762;22;48527;-84
2022/02/03 10:05:39;;;;;;;;;20.25;13.50;;;;;;;;6307715;22;45355;-84
2022/02/03 10:08:04;;;;;;;;;14.00;11.75;;;;;;;;6308347;22;45201;-84
2022/02/03 10:10:30;;;;;;;;;11.50;9.75;;;;;;;;6308940;22;45418;-84
2022/02/03 10:12:56;;;;;;;;;25.75;17.50;;;;;;;;6310350;22;45263;-85
2022/02/03 10:15:21;;;;;;;;;22.75;14.50;;;;;;;;6309905;22;45408;-84
2022/02/03 10:17:48;;;;;;;;;19.00;14.50;;;;;;;;6281620;22;45860;-84
2022/02/03 10:20:16;;;;;;;;;21.25;16.75;;;;;;;;6281622;22;45733;-84
2022/02/03 10:22:49;;;;;;;;;23.50;17.00;;;;;;;;6282685;22;47116;-84
2022/02/03 10:25:21;;;;;;;;;24.50;15.75;;;;;;;;6309071;22;45381;-84
2022/02/03 10:27:56;;;;;;;;;16.75;15.50;;;;;;;;6310150;22;45456;-83
2022/02/03 10:30:25;;;;;;;;;17.25;15.25;;;;;;;;6280961;22;45410;-84
2022/02/03 10:32:51;;;;;;;;;19.50;16.00;;;;;;;;6308457;22;45393;-84
2022/02/03 10:35:22;;;;;;;;;18.25;14.25;;;;;;;;6309516;22;45248;-84
2022/02/03 11:00:10;;;;;;;;;23.25;21.25;;;;;;;;6309645;22;45288;-84
2022/02/03 11:10:23;;;;;;;;;24.75;18.25;;;;;;;;6310165;22;45429;-85
2022/02/03 11:12:52;;;;;;;;;26.75;21.75;;;;;;;;6308029;22;45263;-86
2022/02/03 11:15:18;;;;;;;;;29.25;23.25;;;;;;;;6281313;22;47984;-85
2022/02/03 11:17:47;;;;;;;;;26.25;22.00;;;;;;;;6281072;22;45445;-85
2022/02/03 11:20:15;;;;;;;;;29.50;23.75;;;;;;;;6308181;22;45337;-87
2022/02/03 11:22:56;;;;;;;;;27.00;22.25;;;;;;;;6310003;22;45180;-86
2022/02/03 11:43:25;;;;;;;;;30.25;24.00;;;;;;;;6314809;22;45120;-92
2022/02/03 11:48:52;;;;;;;;;34.25;28.50;;;;;;;;6311756;22;45729;-92
2022/02/03 12:10:30;;;;;;;;;29.25;21.25;;;;;;;;6311478;22;45175;-91
2022/02/03 12:19:33;;;;;;;;;28.50;22.00;;;;;;;;6312386;22;45221;-93
2022/02/03 12:22:15;;;;;;;;;23.75;19.00;;;;;;;;6284933;22;45167;-91
2022/02/03 12:25:04;;;;;;;;;25.25;18.75;;;;;;;;6288548;22;44753;-91
2022/02/03 12:27:53;;;;;;;;;29.25;19.25;;;;;;;;6288737;22;45505;-93
2022/02/03 12:30:27;;;;;;;;;32.25;25.25;;;;;;;;6285382;22;47594;-92
2022/02/03 12:38:28;;;;;;;;;21.75;17.00;;;;;;;;6313694;22;45379;-92
2022/02/03 12:40:57;;;;;;;;;31.75;21.00;;;;;;;;6286139;22;47217;-92
2022/02/03 12:43:29;;;;;;;;;25.25;23.00;;;;;;;;6287410;22;45572;-93
2022/02/03 12:45:54;;;;;;;;;28.75;26.50;;;;;;;;6285581;22;45283;-92
2022/02/03 12:48:24;;;;;;;;;27.00;22.00;;;;;;;;6284637;22;45144;-92
2022/02/03 12:50:53;;;;;;;;;27.25;22.75;;;;;;;;6285357;22;47030;-92
2022/02/03 12:53:18;;;;;;;;;26.50;21.50;;;;;;;;6284611;22;45572;-93
2022/02/03 12:55:44;;;;;;;;;24.25;17.25;;;;;;;;6285731;22;45109;-92
2022/02/03 12:58:16;;;;;;;;;28.25;22.25;;;;;;;;6313352;22;45164;-93
2022/02/03 13:07:31;;;;;;;;;;;;;;;;;;;;;
2022/02/03 13:10:03;;;;;;;;;28.00;19.50;;;;;;;;6258881;22;73381;-86
2022/02/03 13:12:35;;;;;;;;;23.75;19.25;;;;;;;;6308848;22;45331;-87
2022/02/03 13:15:03;;;;;;;;;26.75;18.25;;;;;;;;6281969;22;45912;-86
2022/02/03 13:17:34;;;;;;;;;29.50;21.25;;;;;;;;6281656;22;45408;-86
2022/02/03 13:20:15;;;;;;;;;25.25;18.75;;;;;;;;6309865;22;45149;-86
2022/02/03 13:33:12;;;;;;;;;26.00;19.75;;;;;;;;6285556;22;45395;-87
2022/02/03 13:36:01;;;;;;;;;20.50;19.75;;;;;;;;6281284;22;45201;-87
2022/02/03 13:38:36;;;;;;;;;21.50;17.75;;;;;;;;6308224;22;45270;-87
2022/02/03 13:41:15;;;;;;;;;24.75;21.00;;;;;;;;6308754;22;45201;-87
2022/02/03 13:43:42;;;;;;;;;25.50;20.75;;;;;;;;6310064;22;45323;-86
2022/02/03 13:46:07;;;;;;;;;40.25;22.00;;;;;;;;6282786;22;45209;-87
2022/02/03 13:48:33;;;;;;;;;25.25;19.50;;;;;;;;6283520;22;45199;-87
2022/02/03 13:51:01;;;;;;;;;26.75;19.25;;;;;;;;6311135;22;45565;-87
2022/02/03 14:19:03;;;;;;;;;35.75;23.75;;;;;;;;6310274;22;45339;-86
2022/02/03 14:26:54;;;;;;;;;27.75;21.25;;;;;;;;6310581;22;45331;-87
2022/02/03 14:29:26;;;;;;;;;28.50;20.75;;;;;;;;6285289;22;45816;-91
2022/02/03 14:32:04;;;;;;;;;28.25;22.50;;;;;;;;6286052;22;45422;-86
2022/02/03 14:34:32;;;;;;;;;23.25;18.50;;;;;;;;6296341;22;45607;-94
2022/02/03 14:42:24;;;;;;;;;21.25;17.25;;;;;;;;6318395;22;45473;-96
2022/02/03 14:44:51;;;;;;;;;27.00;15.75;;;;;;;;6290089;22;45882;-94
2022/02/03 14:47:18;;;;;;;;;21.75;17.50;;;;;;;;6288235;22;47250;-91
2022/02/03 14:49:45;;;;;;;;;27.50;22.25;;;;;;;;6264196;22;45411;-94
2022/02/03 14:52:30;;;;;;;;;26.00;20.50;;;;;;;;6289846;22;45110;-91
2022/02/03 15:00:27;;;;;;;;;19.00;14.75;;;;;;;;6316697;22;44979;-92
2022/02/03 15:02:52;;;;;;;;;28.50;16.25;;;;;;;;6290475;22;45316;-94
2022/02/03 15:05:30;;;;;;;;;18.00;14.00;;;;;;;;6289701;22;45416;-91
2022/02/03 15:08:03;;;;;;;;;18.00;15.25;;;;;;;;6284860;22;47241;-89
2022/02/03 15:15:25;;;;;;;;;20.25;14.25;;;;;;;;6309857;22;45397;-87
2022/02/03 15:17:50;;;;;;;;;21.50;13.25;;;;;;;;6308475;22;45486;-87
2022/02/03 15:20:15;;;;;;;;;25.67;18.33;;;;;;;;6311363;22;45364;-88
2022/02/03 15:22:40;;;;;;;;;26.00;17.25;;;;;;;;6311062;22;45221;-85
2022/02/03 15:25:06;;;;;;;;;26.25;15.50;;;;;;;;6283363;22;45347;-87
2022/02/03 15:27:31;;;;;;;;;20.50;13.25;;;;;;;;6313518;22;46125;-92
2022/02/03 15:30:01;;;;;;;;;26.75;16.75;;;;;;;;6294227;22;45193;-91
2022/02/03 15:32:49;;;;;;;;;18.50;12.50;;;;;;;;6320033;22;45227;-88
2022/02/03 15:35:26;;;;;;;;;17.75;15.75;;;;;;;;6288298;22;45658;-87
2022/02/03 15:38:25;;;;;;;;;;;;;;;;;;;;;
2022/02/03 15:41:00;;;;;;;;;;;;;;;;;;;;;
2022/02/03 15:43:41;;;;;;;;;18.00;14.50;;;;;;;;6310321;22;67665;-87
2022/02/03 15:46:07;;;;;;;;;16.25;15.50;;;;;;;;6314580;22;45274;-92
2022/02/03 15:48:41;;;;;;;;;29.75;15.25;;;;;;;;6282780;22;46918;-87
2022/02/03 16:04:26;;;;;;;;;16.00;12.50;;;;;;;;6315493;22;45258;-87
2022/02/03 16:17:38;;;;;;;;;18.00;12.50;;;;;;;;6312599;22;45291;-82
2022/02/03 16:20:14;;;;;;;;;16.25;12.25;;;;;;;;6283875;22;46734;-82
2022/02/03 16:54:52;;;;;;;;;16.75;11.25;;;;;;;;6310777;22;45531;-81
2022/02/03 16:57:22;;;;;;;;;13.50;11.75;;;;;;;;6282716;22;45464;-83
2022/02/03 16:59:54;;;;;;;;;21.75;13.00;;;;;;;;6282474;22;45247;-83
2022/02/03 17:02:20;;;;;;;;;24.75;14.75;;;;;;;;6282150;22;46368;-85
2022/02/03 17:04:45;;;;;;;;;14.50;12.00;;;;;;;;6282077;22;45375;-86
2022/02/03 17:07:11;;;;;;;;;13.75;11.25;;;;;;;;6310401;22;45321;-83
2022/02/03 17:09:38;;;;;;;;;19.75;15.00;;;;;;;;6309300;22;45370;-82
2022/02/03 17:12:03;;;;;;;;;20.00;15.00;;;;;;;;6309426;22;45289;-81
2022/02/03 17:14:30;;;;;;;;;17.50;14.50;;;;;;;;6309936;22;45190;-82
2022/02/03 17:16:55;;;;;;;;;17.75;14.00;;;;;;;;6309544;22;45468;-81
2022/02/03 17:19:22;;;;;;;;;13.00;11.25;;;;;;;;6308870;22;45105;-83
2022/02/03 17:21:47;;;;;;;;;18.50;11.00;;;;;;;;6280125;22;47703;-83
2022/02/03 17:24:12;;;;;;;;;15.00;12.00;;;;;;;;6279940;22;45773;-83
2022/02/03 17:26:50;;;;;;;;;19.25;12.75;;;;;;;;6308612;22;45342;-83
2022/02/03 17:29:29;;;;;;;;;25.50;14.00;;;;;;;;6308492;22;45528;-83
2022/02/03 17:32:06;;;;;;;;;16.25;15.25;;;;;;;;6311144;22;46393;-83
2022/02/03 18:04:58;;;;;;;;;12.75;12.00;;;;;;;;6275968;22;45274;-84
2022/02/03 18:09:16;;;;;;;;;12.25;10.00;;;;;;;;6277379;22;45368;-83
2022/02/03 18:25:48;;;;;;;;;14.75;11.75;;;;;;;;6278079;22;45147;-83
2022/02/03 18:30:20;;;;;;;;;15.25;13.75;;;;;;;;6279243;22;45087;-83
2022/02/03 18:36:07;;;;;;;;;14.00;9.00;;;;;;;;6279925;22;45389;-84
2022/02/03 18:54:44;;;;;;;;;17.67;15.00;;;;;;;;6309815;22;45268;-84
2022/02/03 20:11:20;;;;;;;;;17.50;15.25;;;;;;;;6309155;22;45400;-86
2022/02/03 20:13:47;;;;;;;;;19.00;14.00;;;;;;;;6281008;22;45387;-86
2022/02/03 20:16:16;;;;;;;;;22.25;18.75;;;;;;;;6309597;22;45118;-86
2022/02/03 20:18:41;;;;;;;;;23.50;18.50;;;;;;;;6309074;22;45395;-87
2022/02/03 20:21:06;;;;;;;;;26.33;17.67;;;;;;;;6281023;22;48356;-84
2022/02/03 20:23:31;;;;;;;;;18.67;15.67;;;;;;;;6308106;22;45327;-86
2022/02/03 20:25:57;;;;;;;;;22.33;17.33;;;;;;;;6307954;22;45319;-86
2022/02/03 20:28:23;;;;;;;;;28.50;20.75;;;;;;;;6308519;22;45396;-84
2022/02/03 20:30:48;;;;;;;;;20.00;16.25;;;;;;;;6308040;22;45361;-84
2022/02/03 20:33:15;;;;;;;;;25.33;18.33;;;;;;;;6281023;22;45287;-85
2022/02/03 20:35:40;;;;;;;;;25.50;17.75;;;;;;;;6308660;22;45345;-85
2022/02/03 20:38:06;;;;;;;;;14.75;14.25;;;;;;;;6309953;22;45180;-85
2022/02/03 20:40:31;;;;;;;;;22.00;17.00;;;;;;;;6309159;22;45693;-85
2022/02/03 20:42:57;;;;;;;;;22.00;17.00;;;;;;;;6309793;22;45306;-87
2022/02/03 20:45:22;;;;;;;;;24.33;16.00;;;;;;;;6280292;22;45341;-86
2022/02/03 20:47:47;;;;;;;;;21.00;17.33;;;;;;;;6281263;22;45865;-84
2022/02/03 20:50:13;;;;;;;;;9.75;7.00;;;;;;;;6309824;22;45290;-82
2022/02/03 20:52:39;;;;;;;;;28.00;18.00;;;;;;;;6309863;22;45689;-82
2022/02/03 20:55:05;;;;;;;;;23.00;18.25;;;;;;;;6281612;22;45610;-81
2022/02/03 20:57:30;;;;;;;;;22.75;17.25;;;;;;;;6308167;22;45493;-83
2022/02/03 21:00:42;;;;;;;;;25.25;17.75;;;;;;;;6280068;22;46729;-82
2022/02/03 21:03:00;;;;;;;;;21.00;17.25;;;;;;;;6290333;22;45802;-82
2022/02/03 21:05:25;;;;;;;;;24.50;18.00;;;;;;;;6281808;22;45309;-81
2022/02/03 21:07:51;;;;;;;;;20.00;17.00;;;;;;;;6309271;22;45541;-81
2022/02/03 21:10:20;;;;;;;;;22.25;18.50;;;;;;;;6281605;22;46823;-82
2022/02/03 21:12:46;;;;;;;;;21.25;15.75;;;;;;;;6307882;22;45287;-81
2022/02/03 21:15:14;;;;;;;;;23.00;13.00;;;;;;;;6309571;22;45441;-81
2022/02/03 21:17:40;;;;;;;;;25.50;19.25;;;;;;;;6309994;22;45247;-80
2022/02/03 21:20:14;;;;;;;;;13.50;13.00;;;;;;;;6309874;22;45385;-80
2022/02/03 21:22:40;;;;;;;;;25.75;17.50;;;;;;;;6309655;22;45382;-81
2022/02/03 21:25:14;;;;;;;;;16.50;11.00;;;;;;;;6309529;22;45232;-80
2022/02/03 21:27:39;;;;;;;;;20.50;14.25;;;;;;;;6308879;22;45169;-80
2022/02/03 21:30:07;;;;;;;;;19.00;15.00;;;;;;;;6279984;22;46275;-81
2022/02/03 21:32:32;;;;;;;;;23.50;17.50;;;;;;;;6307707;22;45378;-81
2022/02/03 21:34:57;;;;;;;;;23.50;15.50;;;;;;;;6308103;22;45408;-81
2022/02/03 21:37:22;;;;;;;;;16.00;14.00;;;;;;;;6309341;22;45340;-81
2022/02/03 21:39:54;;;;;;;;;13.33;10.33;;;;;;;;6307819;22;46566;-81
2022/02/03 21:42:19;;;;;;;;;19.00;15.00;;;;;;;;6279498;22;45701;-81
2022/02/03 21:44:44;;;;;;;;;20.67;15.67;;;;;;;;6280868;22;45434;-81
2022/02/03 21:47:09;;;;;;;;;17.67;14.33;;;;;;;;6309172;22;45496;-80
2022/02/03 21:49:35;;;;;;;;;17.75;15.00;;;;;;;;6307033;22;45326;-80
2022/02/03 21:52:00;;;;;;;;;19.33;17.33;;;;;;;;6308868;22;45272;-80
2022/02/03 21:54:25;;;;;;;;;19.00;13.75;;;;;;;;6307447;22;45631;-80
2022/02/03 21:56:51;;;;;;;;;20.33;14.00;;;;;;;;6307382;22;45399;-80
2022/02/03 21:59:16;;;;;;;;;20.25;15.00;;;;;;;;6277947;22;47880;-80
2022/02/03 22:01:43;;;;;;;;;14.33;14.00;;;;;;;;6305452;22;45344;-80
2022/02/03 22:04:09;;;;;;;;;15.75;13.00;;;;;;;;6308430;22;45389;-80
2022/02/03 22:06:34;;;;;;;;;17.50;14.00;;;;;;;;6309173;22;45470;-80
2022/02/03 22:08:59;;;;;;;;;20.00;14.00;;;;;;;;6308840;22;46331;-79
2022/02/03 22:11:25;;;;;;;;;15.75;12.50;;;;;;;;6310458;22;45331;-77
2022/02/03 22:13:50;;;;;;;;;16.00;13.25;;;;;;;;6308942;22;45390;-77
2022/02/03 22:16:23;;;;;;;;;21.00;12.00;;;;;;;;6313258;22;45472;-77
2022/02/03 22:18:49;;;;;;;;;16.00;13.00;;;;;;;;6312416;22;45390;-77
2022/02/03 22:29:31;;;;;;;;;18.75;15.00;;;;;;;;6316228;22;45363;-79
2022/02/03 22:49:40;;;;;;;;;12.25;10.50;;;;;;;;6305865;22;45455;-77
2022/02/03 22:52:05;;;;;;;;;17.00;13.00;;;;;;;;6306350;22;45596;-77
2022/02/03 22:54:31;;;;;;;;;16.25;13.75;;;;;;;;6307717;22;45413;-78
2022/02/03 22:56:56;;;;;;;;;18.50;14.25;;;;;;;;6278153;22;45417;-77
2022/02/03 23:02:05;;;;;;;;;17.00;12.00;;;;;;;;6306671;22;45421;-78
2022/02/03 23:04:31;;;;;;;;;15.25;11.25;;;;;;;;6303767;22;45345;-78
2022/02/03 23:07:05;;;;;;;;;17.75;14.50;;;;;;;;6307517;22;45332;-78
2022/02/03 23:12:15;;;;;;;;;15.67;13.00;;;;;;;;6305127;22;45801;-78
2022/02/03 23:20:05;;;;;;;;;14.25;14.25;;;;;;;;6306453;22;45390;-78
2022/02/03 23:22:31;;;;;;;;;20.00;13.50;;;;;;;;6306371;22;45326;-78
2022/02/03 23:24:57;;;;;;;;;21.50;16.75;;;;;;;;6305672;22;45847;-78
2022/02/03 23:27:46;;;;;;;;;16.25;13.25;;;;;;;;6306262;22;45141;-78
2022/02/03 23:30:10;;;;;;;;;11.50;11.50;;;;;;;;6306972;22;45455;-78
2022/02/03 23:32:36;;;;;;;;;16.25;13.00;;;;;;;;6305599;22;45393;-77
2022/02/03 23:35:14;;;;;;;;;18.25;13.50;;;;;;;;6307522;22;45399;-78
2022/02/03 23:37:42;;;;;;;;;16.25;13.50;;;;;;;;6306298;22;45282;-78
2022/02/03 23:40:20;;;;;;;;;11.25;11.25;;;;;;;;6306656;22;46302;-78
2022/02/03 23:45:28;;;;;;;;;22.50;11.75;;;;;;;;6308774;22;45084;-77
2022/02/03 23:51:24;;;;;;;;;19.00;15.75;;;;;;;;6309469;22;45727;-78
